createdAt,value
2022-10-11T00:00:11.738Z,6.00
2022-10-11T00:02:38.807Z,4.80
2022-10-11T00:05:06.456Z,4.30
2022-10-11T00:07:33.381Z,4.40
2022-10-11T00:10:00.423Z,5.30
2022-10-11T00:12:27.310Z,3.80
2022-10-11T00:14:54.638Z,5.40
2022-10-11T00:17:21.596Z,6.20
2022-10-11T00:19:49.344Z,4.80
2022-10-11T00:22:16.356Z,4.80
2022-10-11T00:24:43.402Z,6.90
2022-10-11T00:27:10.192Z,4.10
2022-10-11T00:29:38.402Z,6.20
2022-10-11T00:32:05.323Z,3.60
2022-10-11T00:34:33.885Z,7.40
2022-10-11T00:37:01.468Z,4.60
2022-10-11T00:39:29.297Z,8.30
2022-10-11T00:41:56.792Z,4.50
2022-10-11T00:44:25.668Z,4.90
2022-10-11T00:47:13.084Z,6.00
2022-10-11T00:49:45.805Z,4.50
2022-10-11T00:52:21.737Z,4.80
2022-10-11T00:57:20.218Z,6.90
2022-10-11T00:59:49.887Z,4.10
2022-10-11T01:02:16.650Z,4.50
2022-10-11T01:04:43.755Z,5.30
2022-10-11T01:07:10.927Z,4.20
2022-10-11T01:09:37.758Z,2.50
2022-10-11T01:12:07.051Z,3.80
2022-10-11T01:14:47.357Z,5.30
2022-10-11T01:17:55.980Z,3.10
2022-10-11T01:20:46.389Z,3.00
2022-10-11T01:23:34.555Z,3.30
2022-10-11T01:26:10.277Z,4.30
2022-10-11T01:28:50.375Z,4.70
2022-10-11T01:31:17.356Z,4.10
2022-10-11T01:34:01.900Z,4.50
2022-10-11T01:36:41.875Z,3.50
2022-10-11T01:39:13.770Z,5.40
2022-10-11T01:41:44.629Z,2.90
2022-10-11T01:44:11.760Z,4.30
2022-10-11T01:46:39.257Z,4.20
2022-10-11T01:49:06.186Z,3.10
2022-10-11T01:51:41.943Z,3.00
2022-10-11T01:54:11.626Z,3.50
2022-10-11T01:57:01.071Z,7.20
2022-10-11T01:59:30.630Z,3.70
2022-10-11T02:02:09.684Z,2.90
2022-10-11T02:05:20.005Z,3.70
2022-10-11T02:07:49.720Z,4.20
2022-10-11T02:10:34.971Z,5.50
2022-10-11T02:13:16.643Z,3.40
2022-10-11T02:15:43.624Z,2.70
2022-10-11T02:18:13.740Z,4.10
2022-10-11T02:20:40.664Z,1.90
2022-10-11T02:23:13.590Z,5.70
2022-10-11T02:25:41.726Z,6.30
2022-10-11T02:28:11.757Z,3.80
2022-10-11T02:30:39.359Z,3.20
2022-10-11T02:33:06.631Z,3.80
2022-10-11T02:35:36.000Z,2.50
2022-10-11T02:38:11.142Z,3.40
2022-10-11T02:40:41.745Z,3.50
2022-10-11T02:43:28.258Z,4.10
2022-10-11T02:53:35.008Z,6.90
2022-10-11T02:56:02.218Z,4.30
2022-10-11T02:58:29.271Z,4.90
2022-10-11T03:00:56.178Z,2.60
2022-10-11T03:03:23.449Z,4.60
2022-10-11T03:05:50.618Z,3.60
2022-10-11T03:08:18.116Z,3.90
2022-10-11T03:10:45.620Z,3.20
2022-10-11T03:13:18.056Z,3.30
2022-10-11T03:16:01.930Z,3.20
2022-10-11T03:18:31.379Z,3.60
2022-10-11T03:20:59.927Z,3.00
2022-10-11T03:23:26.992Z,3.60
2022-10-11T03:25:53.866Z,3.60
2022-10-11T03:28:20.815Z,5.20
2022-10-11T03:30:48.918Z,3.20
2022-10-11T03:33:17.125Z,3.00
2022-10-11T03:35:45.794Z,2.90
2022-10-11T03:38:21.135Z,3.20
2022-10-11T03:40:48.179Z,2.90
2022-10-11T03:43:15.117Z,7.20
2022-10-11T03:45:44.821Z,2.60
2022-10-11T03:48:12.029Z,3.50
2022-10-11T03:50:39.280Z,4.70
2022-10-11T03:53:06.802Z,3.30
2022-10-11T03:55:34.348Z,2.20
2022-10-11T03:58:01.243Z,2.30
2022-10-11T04:00:28.138Z,4.80
2022-10-11T04:02:55.525Z,5.40
2022-10-11T04:05:25.098Z,5.80
2022-10-11T04:07:53.015Z,2.50
2022-10-11T04:10:22.431Z,3.20
2022-10-11T04:12:49.368Z,3.30
2022-10-11T04:15:17.444Z,4.90
2022-10-11T04:17:44.264Z,4.00
2022-10-11T04:20:11.633Z,3.80
2022-10-11T04:22:38.832Z,6.50
2022-10-11T04:25:06.912Z,3.60
2022-10-11T04:27:33.752Z,3.60
2022-10-11T04:30:00.592Z,2.90
2022-10-11T04:32:28.052Z,3.30
2022-10-11T04:34:54.845Z,3.80
2022-10-11T04:37:21.927Z,3.10
2022-10-11T04:39:49.271Z,4.10
2022-10-11T04:42:16.674Z,4.00
2022-10-11T04:44:43.519Z,3.30
2022-10-11T04:47:10.925Z,5.60
2022-10-11T04:49:37.921Z,3.60
2022-10-11T04:52:04.704Z,5.30
2022-10-11T05:02:31.849Z,12.60
2022-10-11T05:04:58.471Z,13.70
2022-10-11T05:07:25.064Z,20.20
2022-10-11T05:09:51.947Z,20.00
2022-10-11T05:12:19.347Z,26.80
2022-10-11T05:14:45.801Z,27.70
2022-10-11T05:17:15.970Z,41.30
2022-10-11T05:19:43.090Z,31.00
2022-10-11T05:22:10.347Z,19.80
2022-10-11T05:24:37.207Z,15.40
2022-10-11T05:27:03.727Z,11.00
2022-10-11T05:29:30.054Z,11.80
2022-10-11T05:31:56.385Z,10.90
2022-10-11T05:34:22.735Z,8.10
2022-10-11T05:36:48.843Z,5.60
2022-10-11T05:39:15.255Z,4.90
2022-10-11T05:41:43.666Z,3.30
2022-10-11T05:44:09.795Z,6.50
2022-10-11T05:46:36.532Z,8.30
2022-10-11T05:49:02.937Z,17.50
2022-10-11T05:51:29.282Z,21.40
2022-10-11T05:53:56.292Z,40.80
2022-10-11T05:56:23.741Z,31.30
2022-10-11T05:58:50.357Z,23.60
2022-10-11T06:01:24.606Z,23.00
2022-10-11T06:03:51.172Z,13.90
2022-10-11T06:06:17.484Z,10.10
2022-10-11T06:08:44.024Z,13.00
2022-10-11T06:11:15.503Z,14.90
2022-10-11T06:13:43.752Z,17.40
2022-10-11T06:16:10.474Z,11.00
2022-10-11T06:18:37.255Z,3.70
2022-10-11T06:21:03.741Z,3.80
2022-10-11T06:23:30.001Z,2.80
2022-10-11T06:25:57.151Z,1.30
2022-10-11T06:28:23.324Z,2.10
2022-10-11T06:30:49.867Z,3.10
2022-10-11T06:33:16.547Z,2.40
2022-10-11T06:35:42.679Z,2.50
2022-10-11T06:38:09.082Z,2.30
2022-10-11T06:40:35.733Z,1.60
2022-10-11T06:43:01.859Z,1.50
2022-10-11T06:45:28.065Z,1.00
2022-10-11T06:47:54.623Z,1.40
2022-10-11T06:50:35.111Z,0.90
2022-10-11T06:53:08.052Z,4.60
2022-10-11T06:55:34.600Z,3.70
2022-10-11T06:58:00.829Z,0.70
2022-10-11T07:00:27.331Z,1.50
2022-10-11T07:02:53.537Z,3.00
2022-10-11T07:05:19.831Z,0.90
2022-10-11T07:07:47.693Z,1.00
2022-10-11T07:10:13.886Z,1.40
2022-10-11T07:12:44.034Z,3.10
2022-10-11T07:15:11.585Z,2.60
2022-10-11T07:17:41.630Z,1.40
2022-10-11T07:20:08.966Z,2.80
2022-10-11T07:22:36.408Z,1.60
2022-10-11T07:25:02.906Z,3.20
2022-10-11T07:27:29.242Z,1.70
2022-10-11T07:29:59.212Z,1.40
2022-10-11T07:32:25.417Z,1.10
2022-10-11T07:34:51.935Z,1.20
2022-10-11T07:37:18.359Z,0.70
2022-10-11T07:39:44.530Z,2.80
2022-10-11T07:42:11.279Z,2.10
2022-10-11T07:44:37.740Z,1.20
2022-10-11T07:47:08.952Z,10.80
2022-10-11T07:49:37.397Z,1.90
2022-10-11T07:52:03.995Z,1.10
2022-10-11T07:54:30.256Z,2.90
2022-10-11T07:56:56.362Z,1.90
2022-10-11T07:59:23.099Z,14.30
2022-10-11T08:01:49.351Z,30.20
2022-10-11T08:04:15.820Z,12.20
2022-10-11T08:06:42.739Z,5.20
2022-10-11T08:09:09.732Z,2.10
2022-10-11T08:11:37.367Z,1.60
2022-10-11T08:14:08.067Z,1.80
2022-10-11T08:16:35.371Z,1.00
2022-10-11T08:19:02.663Z,1.10
2022-10-11T08:21:29.742Z,1.60
2022-10-11T08:23:56.206Z,1.00
2022-10-11T08:26:22.991Z,0.60
2022-10-11T08:41:06.403Z,7.90
2022-10-11T08:43:45.565Z,2.90
2022-10-11T08:46:11.873Z,0.70
2022-10-11T08:48:45.880Z,2.10
2022-10-11T08:51:19.960Z,1.30
2022-10-11T08:54:19.507Z,1.80
2022-10-11T08:56:47.090Z,21.00
2022-10-11T08:59:26.512Z,5.30
2022-10-11T09:01:59.648Z,33.80
2022-10-11T09:04:26.552Z,28.90
2022-10-11T09:07:05.167Z,7.20
2022-10-11T09:09:49.810Z,2.80
2022-10-11T09:12:33.499Z,1.80
2022-10-11T09:15:20.266Z,3.40
2022-10-11T09:18:21.702Z,3.10
2022-10-11T09:20:52.410Z,1.90
2022-10-11T09:23:44.650Z,1.10
2022-10-11T09:26:18.832Z,2.60
2022-10-11T09:29:11.424Z,9.00
2022-10-11T09:31:40.541Z,2.60
2022-10-11T09:34:12.588Z,0.70
2022-10-11T09:37:01.592Z,0.50
2022-10-11T09:39:35.754Z,0.80
2022-10-11T09:42:02.927Z,1.20
2022-10-11T09:44:33.397Z,0.70
2022-10-11T09:47:00.473Z,1.20
2022-10-11T09:49:37.506Z,1.00
2022-10-11T09:52:05.425Z,0.80
2022-10-11T10:27:21.370Z,1.00
2022-10-11T10:30:08.510Z,3.20
2022-10-11T10:33:17.067Z,2.10
2022-10-11T10:35:48.455Z,1.00
2022-10-11T10:38:17.552Z,1.50
2022-10-11T10:40:47.869Z,1.10
2022-10-11T10:43:20.560Z,1.50
2022-10-11T10:45:59.324Z,1.60
2022-10-11T10:49:28.753Z,2.50
2022-10-11T10:52:10.821Z,1.80
2022-10-11T10:54:56.621Z,54.40
2022-10-11T10:57:26.336Z,43.70
2022-10-11T11:00:19.582Z,9.30
2022-10-11T11:03:01.168Z,3.80
2022-10-11T11:05:34.010Z,3.60
2022-10-11T11:08:08.783Z,1.80
2022-10-11T11:10:56.143Z,1.80
2022-10-11T11:13:32.975Z,0.90
2022-10-11T11:16:23.626Z,5.00
2022-10-11T11:19:12.656Z,0.90
2022-10-11T11:21:42.576Z,1.00
2022-10-11T11:24:27.883Z,1.60
2022-10-11T11:27:27.384Z,0.70
2022-10-11T11:30:05.244Z,0.60
2022-10-11T11:33:07.732Z,0.90
2022-10-11T11:35:39.625Z,0.60
2022-10-11T11:38:46.864Z,1.70
2022-10-11T11:41:23.160Z,1.80
2022-10-11T11:44:01.284Z,1.60
2022-10-11T11:46:36.177Z,2.90
2022-10-11T11:49:10.820Z,0.70
2022-10-11T11:51:42.987Z,2.40
2022-10-11T11:54:37.286Z,2.30
2022-10-11T11:57:28.691Z,1.60
2022-10-11T12:00:14.773Z,1.30
2022-10-11T12:03:03.411Z,2.70
2022-10-11T12:05:32.708Z,2.30
2022-10-11T12:08:08.890Z,1.70
2022-10-11T12:10:39.664Z,1.90
2022-10-11T12:13:32.190Z,2.60
2022-10-11T12:16:16.327Z,1.30
2022-10-11T12:19:02.907Z,1.70
2022-10-11T12:21:34.678Z,2.00
2022-10-11T12:24:15.515Z,0.90
2022-10-11T12:27:03.252Z,1.30
2022-10-11T12:29:49.063Z,3.70
2022-10-11T12:32:38.651Z,1.60
2022-10-11T12:35:34.686Z,2.20
2022-10-11T12:38:22.524Z,1.10
2022-10-11T12:40:54.788Z,1.50
2022-10-11T12:43:33.309Z,1.20
2022-10-11T12:46:28.340Z,2.70
2022-10-11T12:49:04.160Z,2.40
2022-10-11T12:52:17.837Z,1.70
2022-10-11T12:55:04.486Z,1.60
2022-10-11T12:57:45.910Z,3.90
2022-10-11T13:00:26.241Z,3.20
2022-10-11T13:02:53.537Z,2.40
2022-10-11T13:05:24.490Z,2.00
2022-10-11T13:07:52.802Z,2.20
2022-10-11T13:10:24.539Z,2.20
2022-10-11T13:12:51.674Z,1.70
2022-10-11T13:15:19.687Z,1.70
2022-10-11T13:17:48.773Z,2.40
2022-10-11T13:20:15.943Z,5.30
2022-10-11T13:22:47.270Z,2.00
2022-10-11T13:25:22.208Z,1.10
2022-10-11T13:27:50.229Z,2.00
2022-10-11T13:30:19.871Z,1.30
2022-10-11T13:32:46.949Z,1.20
2022-10-11T15:56:29.272Z,134.00
2022-10-11T15:59:00.006Z,140.60
2022-10-11T16:01:27.348Z,138.20
2022-10-11T16:03:54.105Z,142.20
2022-10-11T16:06:21.777Z,126.50
2022-10-11T16:08:48.649Z,101.20
2022-10-11T16:11:15.785Z,82.50
2022-10-11T16:13:43.282Z,66.40
2022-10-11T16:16:11.358Z,62.60
2022-10-11T16:18:39.736Z,69.60
2022-10-11T16:21:09.264Z,73.00
2022-10-11T16:23:36.652Z,75.70
2022-10-11T16:26:05.552Z,70.70
2022-10-11T16:28:33.747Z,58.10
2022-10-11T16:31:06.490Z,48.70
2022-10-11T16:33:33.546Z,52.90
2022-10-11T16:36:20.485Z,58.70
2022-10-11T16:38:47.378Z,63.80
2022-10-11T16:41:14.223Z,62.80
2022-10-11T16:43:41.256Z,59.80
2022-10-11T16:46:09.074Z,62.60
2022-10-11T16:48:36.207Z,60.60
2022-10-11T16:51:07.839Z,57.00
2022-10-11T16:53:35.670Z,57.10
2022-10-11T16:56:09.740Z,58.90
2022-10-11T16:58:36.862Z,61.00
2022-10-11T17:01:08.188Z,57.90
2022-10-11T17:03:35.469Z,64.10
2022-10-11T17:06:04.994Z,67.20
2022-10-11T17:08:32.033Z,67.90
2022-10-11T17:10:59.885Z,68.40
2022-10-11T17:13:28.069Z,69.50
2022-10-11T17:15:55.110Z,69.70
2022-10-11T20:42:54.209Z,13.70
2022-10-11T20:45:21.131Z,13.40
2022-10-11T20:47:47.869Z,9.10
2022-10-11T20:50:16.672Z,6.00
2022-10-11T20:52:46.428Z,6.70
2022-10-11T20:55:13.732Z,7.00
2022-10-11T20:57:40.893Z,6.00
2022-10-11T21:00:08.940Z,9.80
2022-10-11T21:02:36.346Z,4.00
2022-10-11T21:05:03.470Z,6.00
2022-10-11T21:07:30.729Z,5.90
2022-10-11T21:09:57.865Z,5.80
2022-10-11T21:12:25.106Z,5.30
2022-10-11T21:14:52.284Z,5.10
2022-10-11T21:17:19.383Z,5.50
2022-10-11T21:19:46.452Z,3.20
2022-10-11T21:22:13.548Z,3.60
2022-10-11T21:24:40.362Z,3.90
2022-10-11T21:27:07.236Z,3.60
2022-10-11T21:29:34.804Z,3.70
2022-10-11T21:32:01.671Z,4.90
2022-10-11T21:34:28.827Z,3.50
2022-10-11T21:36:55.751Z,3.20
2022-10-11T21:39:25.085Z,3.40
2022-10-11T21:41:52.052Z,6.20
2022-10-11T21:44:19.142Z,5.30
2022-10-11T21:49:33.330Z,5.60
2022-10-11T21:52:00.056Z,5.60
2022-10-11T21:54:27.228Z,4.80
2022-10-11T21:56:54.482Z,6.60
2022-10-11T21:59:21.338Z,5.10
2022-10-11T22:01:48.227Z,5.90
2022-10-11T22:04:15.084Z,4.70
2022-10-11T22:06:41.941Z,5.50
2022-10-11T22:09:08.848Z,6.00
2022-10-11T22:11:36.599Z,4.40
2022-10-11T22:14:03.693Z,6.30
2022-10-11T22:16:30.741Z,4.50
2022-10-11T22:18:58.047Z,5.20
2022-10-11T22:21:25.133Z,3.60
2022-10-11T22:23:53.527Z,6.00
2022-10-11T22:26:30.085Z,4.30
2022-10-11T22:28:58.231Z,5.00
2022-10-11T22:31:25.394Z,6.50
2022-10-11T22:39:57.013Z,7.50
2022-10-11T22:42:27.579Z,4.70
2022-10-11T22:44:54.743Z,6.40
2022-10-11T22:47:21.571Z,8.60
2022-10-11T22:49:48.742Z,6.10
2022-10-11T22:52:15.700Z,5.70
2022-10-11T22:54:42.768Z,6.20
2022-10-11T22:57:10.189Z,6.60
2022-10-11T22:59:37.596Z,5.80
2022-10-11T23:02:04.442Z,7.10
2022-10-11T23:04:31.549Z,5.10
2022-10-11T23:07:02.571Z,5.30
2022-10-11T23:09:31.903Z,7.20
2022-10-11T23:11:59.692Z,5.40
2022-10-11T23:14:26.387Z,4.30
2022-10-11T23:16:54.791Z,6.20
2022-10-11T23:19:21.747Z,4.20
2022-10-11T23:21:49.116Z,3.30
2022-10-11T23:24:18.345Z,7.30
2022-10-11T23:26:46.367Z,6.00
2022-10-11T23:29:13.754Z,6.50
2022-10-11T23:31:40.887Z,7.10
2022-10-11T23:34:07.782Z,5.90
2022-10-11T23:36:34.622Z,6.70
2022-10-11T23:39:01.701Z,5.00
2022-10-11T23:41:29.478Z,6.00
2022-10-11T23:43:56.951Z,7.50
2022-10-11T23:46:23.867Z,6.70
2022-10-11T23:48:50.709Z,6.50
2022-10-11T23:51:17.834Z,6.40
2022-10-11T23:53:45.166Z,6.10
2022-10-11T23:56:12.132Z,7.70
2022-10-11T23:58:39.094Z,6.40
